createdAt,value
2018-07-15T00:00:56.698Z,50.80
2018-07-15T00:02:01.724Z,50.80
2018-07-15T00:03:06.501Z,50.80
2018-07-15T00:04:11.508Z,50.80
2018-07-15T00:05:16.270Z,50.80
2018-07-15T00:06:21.357Z,50.80
2018-07-15T00:07:26.371Z,50.80
2018-07-15T00:08:31.414Z,50.80
2018-07-15T00:09:36.990Z,50.90
2018-07-15T00:10:42.570Z,50.80
2018-07-15T00:11:48.150Z,50.80
2018-07-15T00:12:53.273Z,50.80
2018-07-15T00:13:58.295Z,50.80
2018-07-15T00:15:03.258Z,50.80
2018-07-15T00:16:08.320Z,50.80
2018-07-15T00:17:13.834Z,50.80
2018-07-15T00:18:18.734Z,50.80
2018-07-15T00:19:23.798Z,50.80
2018-07-15T00:20:28.717Z,50.80
2018-07-15T00:21:34.388Z,50.80
2018-07-15T00:22:39.199Z,50.80
2018-07-15T00:23:44.840Z,50.80
2018-07-15T00:24:50.472Z,50.90
2018-07-15T00:25:56.099Z,50.80
2018-07-15T00:27:01.208Z,50.80
2018-07-15T00:28:06.269Z,50.90
2018-07-15T00:29:11.238Z,50.90
2018-07-15T00:30:16.334Z,50.90
2018-07-15T00:31:21.369Z,50.80
2018-07-15T00:32:26.357Z,50.90
2018-07-15T00:33:31.524Z,50.80
2018-07-15T00:34:36.621Z,50.90
2018-07-15T00:35:41.738Z,50.80
2018-07-15T00:36:47.354Z,50.80
2018-07-15T00:37:52.196Z,50.90
2018-07-15T00:38:57.101Z,50.90
2018-07-15T00:40:02.177Z,50.90
2018-07-15T00:41:07.775Z,50.80
2018-07-15T00:42:13.284Z,50.80
2018-07-15T00:43:18.951Z,50.80
2018-07-15T00:44:24.612Z,50.80
2018-07-15T00:45:29.661Z,50.80
2018-07-15T00:46:35.298Z,50.80
2018-07-15T00:47:40.135Z,50.80
2018-07-15T00:48:45.690Z,50.80
2018-07-15T00:49:50.665Z,50.80
2018-07-15T00:50:56.306Z,50.80
2018-07-15T00:52:01.909Z,50.80
2018-07-15T00:53:06.735Z,50.80
2018-07-15T00:54:11.569Z,50.90
2018-07-15T00:55:16.597Z,50.80
2018-07-15T00:56:21.585Z,50.80
2018-07-15T00:57:26.420Z,50.80
2018-07-15T00:58:31.244Z,50.80
2018-07-15T00:59:36.068Z,50.80
2018-07-15T01:00:41.069Z,50.80
2018-07-15T01:01:46.135Z,50.90
2018-07-15T01:02:51.002Z,50.80
2018-07-15T01:03:56.097Z,50.80
2018-07-15T01:05:00.889Z,50.80
2018-07-15T01:06:05.926Z,50.80
2018-07-15T01:07:10.862Z,50.80
2018-07-15T01:08:16.404Z,50.80
2018-07-15T01:09:22.052Z,50.80
2018-07-15T01:10:27.670Z,50.80
2018-07-15T01:11:33.251Z,50.80
2018-07-15T01:12:38.281Z,50.80
2018-07-15T01:13:43.291Z,50.90
2018-07-15T01:14:48.819Z,50.80
2018-07-15T01:15:53.822Z,50.90
2018-07-15T01:16:58.733Z,50.90
2018-07-15T01:18:03.712Z,50.80
2018-07-15T01:19:08.739Z,50.90
2018-07-15T01:20:13.599Z,50.90
2018-07-15T01:21:19.105Z,50.90
2018-07-15T01:22:24.074Z,50.80
2018-07-15T01:23:29.650Z,50.90
2018-07-15T01:24:35.269Z,50.80
2018-07-15T01:25:40.096Z,50.80
2018-07-15T01:26:45.665Z,50.90
2018-07-15T01:27:50.647Z,50.80
2018-07-15T01:28:55.586Z,50.80
2018-07-15T01:30:00.605Z,50.80
2018-07-15T01:31:05.542Z,50.80
2018-07-15T01:32:11.070Z,50.80
2018-07-15T01:33:16.699Z,50.80
2018-07-15T01:34:21.719Z,50.90
2018-07-15T01:35:27.196Z,50.80
2018-07-15T01:36:32.009Z,50.80
2018-07-15T01:37:37.015Z,50.80
2018-07-15T01:38:42.610Z,50.80
2018-07-15T01:39:48.172Z,50.80
2018-07-15T01:40:53.020Z,50.80
2018-07-15T01:41:58.040Z,50.90
2018-07-15T01:43:03.708Z,50.80
2018-07-15T01:44:08.714Z,50.80
2018-07-15T01:45:13.837Z,50.90
2018-07-15T01:46:19.440Z,50.80
2018-07-15T01:47:24.465Z,50.90
2018-07-15T01:48:29.432Z,50.80
2018-07-15T01:49:34.453Z,50.80
2018-07-15T01:50:39.554Z,50.80
2018-07-15T01:51:44.394Z,50.80
2018-07-15T01:52:49.449Z,50.90
2018-07-15T01:53:54.488Z,50.80
2018-07-15T01:54:59.591Z,50.80
2018-07-15T01:56:04.671Z,50.80
2018-07-15T01:57:09.830Z,50.90
2018-07-15T01:58:15.403Z,50.80
2018-07-15T01:59:20.488Z,50.80
2018-07-15T02:00:26.126Z,50.90
2018-07-15T02:01:30.948Z,50.90
2018-07-15T02:02:35.987Z,50.80
2018-07-15T02:03:41.119Z,50.80
2018-07-15T02:04:46.226Z,50.80
2018-07-15T02:05:51.275Z,50.80
2018-07-15T02:06:56.841Z,50.80
2018-07-15T02:08:01.926Z,50.80
2018-07-15T02:09:07.572Z,50.90
2018-07-15T02:10:13.324Z,50.90
2018-07-15T02:11:18.282Z,50.80
2018-07-15T02:12:23.086Z,50.80
2018-07-15T02:13:28.101Z,50.90
2018-07-15T02:14:33.112Z,50.80
2018-07-15T02:15:38.791Z,50.80
2018-07-15T02:16:43.602Z,50.80
2018-07-15T02:17:48.630Z,50.80
2018-07-15T02:18:53.621Z,50.80
2018-07-15T02:19:58.673Z,50.80
2018-07-15T02:21:04.215Z,50.80
2018-07-15T02:22:09.230Z,50.80
2018-07-15T02:23:14.207Z,50.90
2018-07-15T02:24:19.081Z,50.80
2018-07-15T02:25:24.027Z,50.80
2018-07-15T02:26:28.882Z,50.80
2018-07-15T02:27:33.879Z,50.80
2018-07-15T02:28:38.915Z,50.80
2018-07-15T02:29:43.729Z,50.80
2018-07-15T02:30:49.270Z,50.80
2018-07-15T02:31:54.105Z,50.80
2018-07-15T02:32:58.942Z,51.40
2018-07-15T02:34:03.930Z,50.80
2018-07-15T02:35:08.904Z,50.80
2018-07-15T02:36:13.828Z,50.80
2018-07-15T02:37:18.879Z,50.80
2018-07-15T02:38:24.013Z,50.80
2018-07-15T02:39:28.917Z,50.70
2018-07-15T02:40:34.526Z,50.80
2018-07-15T02:41:39.499Z,50.80
2018-07-15T02:42:44.568Z,50.80
2018-07-15T02:43:49.380Z,50.80
2018-07-15T02:44:55.035Z,50.70
2018-07-15T02:46:00.173Z,50.70
2018-07-15T02:47:05.834Z,50.80
2018-07-15T02:48:11.526Z,50.80
2018-07-15T02:49:16.597Z,50.80
2018-07-15T02:50:21.800Z,50.80
2018-07-15T02:51:26.812Z,50.80
2018-07-15T02:52:31.821Z,50.80
2018-07-15T02:53:36.845Z,50.80
2018-07-15T02:54:41.908Z,50.80
2018-07-15T02:55:47.630Z,50.80
2018-07-15T02:56:52.691Z,50.80
2018-07-15T02:57:57.817Z,50.70
2018-07-15T02:59:03.021Z,50.80
2018-07-15T03:00:08.012Z,51.40
2018-07-15T03:01:13.058Z,50.80
2018-07-15T03:02:18.258Z,50.80
2018-07-15T03:03:23.319Z,50.70
2018-07-15T03:04:28.300Z,50.80
2018-07-15T03:05:33.976Z,50.80
2018-07-15T03:06:39.045Z,50.80
2018-07-15T03:07:44.014Z,50.80
2018-07-15T03:08:49.064Z,50.70
2018-07-15T03:09:53.917Z,50.80
2018-07-15T03:10:58.905Z,50.80
2018-07-15T03:12:03.853Z,50.70
2018-07-15T03:13:08.811Z,50.80
2018-07-15T03:14:13.824Z,50.80
2018-07-15T03:15:18.896Z,50.70
2018-07-15T03:16:23.814Z,50.70
2018-07-15T03:17:28.881Z,50.70
2018-07-15T03:18:33.853Z,50.80
2018-07-15T03:19:38.817Z,50.60
2018-07-15T03:20:43.868Z,50.70
2018-07-15T03:21:48.674Z,50.60
2018-07-15T03:22:53.529Z,50.80
2018-07-15T03:23:58.589Z,50.60
2018-07-15T03:25:03.611Z,50.70
2018-07-15T03:26:08.648Z,50.80
2018-07-15T03:27:13.570Z,50.70
2018-07-15T03:28:18.479Z,50.80
2018-07-15T03:29:23.491Z,50.60
2018-07-15T03:30:29.134Z,50.60
2018-07-15T03:31:34.140Z,50.60
2018-07-15T03:32:39.726Z,50.70
2018-07-15T03:33:44.726Z,50.60
2018-07-15T03:34:50.352Z,50.60
2018-07-15T03:35:55.351Z,50.80
2018-07-15T03:37:01.020Z,50.70
2018-07-15T03:38:06.104Z,50.70
2018-07-15T03:39:10.980Z,50.70
2018-07-15T03:40:16.021Z,50.60
2018-07-15T03:41:20.997Z,50.70
2018-07-15T03:42:25.891Z,50.60
2018-07-15T03:43:31.504Z,50.60
2018-07-15T03:44:36.509Z,50.60
2018-07-15T03:45:42.134Z,50.60
2018-07-15T03:46:47.722Z,50.70
2018-07-15T03:47:52.809Z,50.70
2018-07-15T03:48:58.080Z,50.60
2018-07-15T03:50:03.151Z,50.60
2018-07-15T03:51:08.728Z,50.60
2018-07-15T03:52:13.721Z,51.30
2018-07-15T03:53:18.562Z,50.70
2018-07-15T03:54:23.586Z,50.70
2018-07-15T03:55:28.512Z,50.70
2018-07-15T03:56:33.311Z,50.70
2018-07-15T03:57:38.168Z,50.70
2018-07-15T03:58:43.773Z,50.60
2018-07-15T03:59:48.575Z,50.70
2018-07-15T04:00:54.277Z,50.60
2018-07-15T04:01:59.061Z,50.60
2018-07-15T04:03:04.646Z,51.30
2018-07-15T04:04:10.305Z,50.70
2018-07-15T04:05:15.099Z,50.70
2018-07-15T04:06:20.614Z,50.60
2018-07-15T04:07:25.639Z,50.70
2018-07-15T04:08:30.600Z,50.70
2018-07-15T04:09:35.431Z,50.60
2018-07-15T04:10:40.435Z,50.70
2018-07-15T04:11:45.480Z,50.70
2018-07-15T04:12:51.014Z,50.60
2018-07-15T04:13:56.002Z,50.60
2018-07-15T04:15:01.022Z,50.70
2018-07-15T04:16:06.675Z,50.70
2018-07-15T04:17:11.484Z,50.70
2018-07-15T04:18:16.506Z,50.70
2018-07-15T04:19:21.497Z,50.70
2018-07-15T04:20:26.498Z,50.70
2018-07-15T04:21:31.302Z,50.70
2018-07-15T04:22:36.887Z,50.70
2018-07-15T04:23:41.847Z,50.70
2018-07-15T04:24:46.858Z,50.70
2018-07-15T04:25:51.891Z,50.70
2018-07-15T04:26:56.906Z,50.70
2018-07-15T04:28:02.540Z,50.70
2018-07-15T04:29:08.126Z,50.70
2018-07-15T04:30:12.969Z,50.70
2018-07-15T04:31:17.861Z,50.70
2018-07-15T04:32:22.832Z,50.70
2018-07-15T04:33:27.706Z,50.80
2018-07-15T04:34:32.729Z,50.70
2018-07-15T04:35:37.680Z,50.70
2018-07-15T04:36:43.196Z,50.70
2018-07-15T04:37:48.270Z,50.70
2018-07-15T04:38:53.035Z,50.70
2018-07-15T04:39:58.073Z,50.70
2018-07-15T04:41:03.085Z,50.70
2018-07-15T04:42:08.621Z,50.70
2018-07-15T04:43:13.625Z,50.70
2018-07-15T04:44:18.667Z,50.70
2018-07-15T04:45:24.253Z,50.70
2018-07-15T04:46:29.824Z,50.70
2018-07-15T04:47:35.401Z,50.70
2018-07-15T04:48:40.359Z,50.70
2018-07-15T04:49:45.383Z,50.80
2018-07-15T04:50:50.413Z,50.70
2018-07-15T04:51:55.391Z,50.80
2018-07-15T04:53:01.061Z,50.70
2018-07-15T04:54:06.023Z,50.70
2018-07-15T04:55:11.009Z,50.80
2018-07-15T04:56:15.764Z,50.80
2018-07-15T04:57:20.569Z,50.80
2018-07-15T04:58:25.552Z,50.70
2018-07-15T04:59:30.377Z,50.80
2018-07-15T05:00:35.406Z,50.80
2018-07-15T05:01:40.394Z,50.80
2018-07-15T05:02:45.983Z,50.80
2018-07-15T05:03:50.967Z,50.80
2018-07-15T05:04:55.952Z,50.80
2018-07-15T05:06:00.821Z,50.80
2018-07-15T05:07:06.414Z,50.80
2018-07-15T05:08:11.181Z,50.80
2018-07-15T05:09:16.736Z,50.80
2018-07-15T05:10:21.604Z,50.80
2018-07-15T05:11:26.664Z,50.80
2018-07-15T05:12:31.681Z,50.80
2018-07-15T05:13:36.675Z,50.80
2018-07-15T05:14:42.270Z,50.80
2018-07-15T05:15:47.372Z,50.80
2018-07-15T05:16:52.948Z,50.80
2018-07-15T05:17:57.877Z,50.80
2018-07-15T05:19:02.988Z,50.80
2018-07-15T05:20:07.865Z,50.80
2018-07-15T05:21:12.900Z,50.80
2018-07-15T05:22:18.545Z,50.80
2018-07-15T05:23:23.452Z,50.80
2018-07-15T05:24:28.537Z,50.80
2018-07-15T05:25:33.550Z,50.80
2018-07-15T05:26:38.676Z,50.80
2018-07-15T05:27:43.708Z,50.80
2018-07-15T05:28:48.666Z,50.80
2018-07-15T05:29:54.317Z,50.80
2018-07-15T05:30:59.395Z,50.80
2018-07-15T05:32:04.424Z,50.80
2018-07-15T05:33:09.504Z,50.80
2018-07-15T05:34:14.351Z,50.80
2018-07-15T05:35:19.474Z,50.80
2018-07-15T05:36:24.563Z,50.80
2018-07-15T05:37:29.678Z,51.50
2018-07-15T05:38:34.742Z,51.00
2018-07-15T05:39:39.741Z,50.80
2018-07-15T05:40:44.782Z,50.80
2018-07-15T05:41:49.848Z,50.80
2018-07-15T05:42:54.871Z,50.80
2018-07-15T05:43:59.992Z,50.80
2018-07-15T05:45:05.050Z,50.80
2018-07-15T05:46:10.199Z,50.80
2018-07-15T05:47:15.461Z,50.80
2018-07-15T05:48:21.097Z,50.80
2018-07-15T05:49:25.921Z,50.80
2018-07-15T05:50:30.996Z,50.80
2018-07-15T05:51:36.031Z,50.80
2018-07-15T05:52:41.054Z,50.80
2018-07-15T05:53:46.023Z,50.80
2018-07-15T05:54:51.023Z,50.80
2018-07-15T05:55:55.880Z,50.80
2018-07-15T05:57:00.857Z,50.80
2018-07-15T05:58:06.031Z,50.80
2018-07-15T05:59:10.740Z,50.80
2018-07-15T06:00:16.389Z,50.80
2018-07-15T06:01:21.364Z,50.80
2018-07-15T06:02:26.428Z,50.80
2018-07-15T06:03:31.519Z,50.80
2018-07-15T06:04:36.437Z,50.80
2018-07-15T06:05:42.046Z,50.80
2018-07-15T06:06:47.016Z,50.80
2018-07-15T06:07:51.997Z,50.80
2018-07-15T06:08:57.032Z,50.80
2018-07-15T06:10:01.869Z,50.80
2018-07-15T06:11:06.871Z,50.80
2018-07-15T06:12:12.434Z,50.80
2018-07-15T06:13:17.927Z,50.80
2018-07-15T06:14:22.681Z,50.70
2018-07-15T06:15:27.729Z,50.70
2018-07-15T06:16:33.315Z,50.80
2018-07-15T06:17:38.387Z,50.80
2018-07-15T06:18:43.945Z,50.80
2018-07-15T06:19:48.999Z,50.80
2018-07-15T06:20:54.544Z,50.80
2018-07-15T06:22:00.128Z,50.80
2018-07-15T06:23:05.747Z,50.80
2018-07-15T06:24:10.823Z,50.80
2018-07-15T06:25:15.839Z,50.80
2018-07-15T06:26:20.609Z,50.80
2018-07-15T06:27:25.489Z,50.80
2018-07-15T06:28:30.530Z,50.80
2018-07-15T06:29:35.413Z,50.80
2018-07-15T06:30:41.000Z,51.50
2018-07-15T06:31:46.055Z,50.80
2018-07-15T06:32:51.690Z,50.80
2018-07-15T06:33:56.568Z,50.80
2018-07-15T06:35:02.125Z,50.80
2018-07-15T06:36:07.112Z,50.80
2018-07-15T06:37:12.069Z,50.80
2018-07-15T06:38:17.663Z,50.80
2018-07-15T06:39:23.289Z,50.90
2018-07-15T06:40:28.396Z,50.80
2018-07-15T06:41:33.232Z,50.80
2018-07-15T06:42:38.248Z,50.80
2018-07-15T06:43:43.325Z,50.90
2018-07-15T06:44:48.220Z,50.90
2018-07-15T06:45:53.331Z,50.80
2018-07-15T06:46:59.016Z,50.80
2018-07-15T06:48:04.639Z,50.90
2018-07-15T06:49:09.514Z,50.90
2018-07-15T06:50:14.348Z,50.90
2018-07-15T06:51:19.961Z,50.90
2018-07-15T06:52:24.799Z,50.90
2018-07-15T06:53:29.742Z,50.90
2018-07-15T06:54:34.770Z,50.90
2018-07-15T06:55:39.935Z,50.90
2018-07-15T06:56:44.997Z,50.90
2018-07-15T06:57:50.611Z,50.90
2018-07-15T06:58:55.676Z,50.90
2018-07-15T07:00:02.321Z,50.90
2018-07-15T07:01:08.477Z,50.90
2018-07-15T07:02:14.263Z,50.90
2018-07-15T07:03:19.423Z,50.90
2018-07-15T07:04:24.540Z,50.90
2018-07-15T07:05:29.475Z,50.90
2018-07-15T07:06:34.557Z,50.90
2018-07-15T07:07:39.687Z,50.80
2018-07-15T07:08:44.659Z,50.90
2018-07-15T07:09:49.692Z,50.90
2018-07-15T07:10:55.192Z,50.90
2018-07-15T07:12:00.085Z,50.90
2018-07-15T07:13:04.881Z,50.80
2018-07-15T07:14:09.750Z,50.90
2018-07-15T07:15:14.698Z,50.80
2018-07-15T07:16:19.598Z,50.90
2018-07-15T07:17:24.668Z,50.80
2018-07-15T07:18:29.633Z,50.80
2018-07-15T07:19:34.491Z,50.90
2018-07-15T07:20:40.162Z,50.90
2018-07-15T07:21:45.727Z,50.90
2018-07-15T07:22:51.344Z,50.80
2018-07-15T07:23:56.949Z,50.90
2018-07-15T07:25:02.546Z,50.80
2018-07-15T07:26:07.547Z,50.90
2018-07-15T07:27:12.432Z,50.80
2018-07-15T07:28:17.365Z,50.80
2018-07-15T07:29:22.409Z,50.80
2018-07-15T07:30:27.414Z,50.80
2018-07-15T07:31:32.426Z,50.80
2018-07-15T07:32:37.279Z,50.80
2018-07-15T07:33:42.135Z,50.80
2018-07-15T07:34:47.175Z,50.80
2018-07-15T07:35:52.214Z,50.80
2018-07-15T07:36:57.078Z,50.90
2018-07-15T07:38:02.753Z,50.90
2018-07-15T07:39:07.789Z,50.90
2018-07-15T07:40:12.812Z,50.90
2018-07-15T07:41:17.935Z,50.80
2018-07-15T07:42:23.527Z,50.90
2018-07-15T07:43:28.597Z,50.90
2018-07-15T07:44:34.242Z,50.90
2018-07-15T07:45:39.313Z,50.90
2018-07-15T07:46:44.379Z,50.90
2018-07-15T07:47:49.416Z,50.90
2018-07-15T07:48:55.026Z,50.90
2018-07-15T07:50:00.651Z,50.90
2018-07-15T07:51:05.559Z,50.90
2018-07-15T07:52:10.407Z,50.90
2018-07-15T07:53:15.348Z,50.90
2018-07-15T07:54:20.986Z,50.90
2018-07-15T07:55:26.039Z,50.90
2018-07-15T07:56:30.911Z,50.90
2018-07-15T07:57:35.835Z,50.90
2018-07-15T07:58:40.867Z,50.90
2018-07-15T07:59:45.735Z,50.90
2018-07-15T08:00:50.594Z,51.00
2018-07-15T08:01:55.627Z,51.00
2018-07-15T08:03:00.650Z,51.00
2018-07-15T08:04:05.678Z,51.00
2018-07-15T08:05:10.698Z,51.00
2018-07-15T08:06:15.533Z,51.00
2018-07-15T08:07:21.199Z,51.00
2018-07-15T08:08:26.207Z,51.00
2018-07-15T08:09:31.163Z,51.00
2018-07-15T08:10:36.077Z,51.00
2018-07-15T08:11:40.906Z,51.00
2018-07-15T08:12:45.725Z,51.00
2018-07-15T08:13:51.613Z,51.00
2018-07-15T08:14:56.599Z,51.00
2018-07-15T08:16:01.394Z,51.00
2018-07-15T08:17:06.373Z,51.00
2018-07-15T08:18:11.203Z,51.00
2018-07-15T08:19:16.780Z,51.00
2018-07-15T08:20:21.773Z,50.90
2018-07-15T08:21:27.467Z,51.00
2018-07-15T08:22:32.631Z,51.00
2018-07-15T08:23:37.657Z,51.00
2018-07-15T08:24:42.628Z,51.00
2018-07-15T08:25:47.697Z,51.00
2018-07-15T08:26:55.582Z,50.90
2018-07-15T08:28:00.435Z,50.90
2018-07-15T08:29:05.943Z,50.90
2018-07-15T08:30:10.766Z,50.90
2018-07-15T08:31:15.681Z,50.90
2018-07-15T08:32:20.632Z,50.90
2018-07-15T08:33:26.180Z,51.00
2018-07-15T08:34:31.937Z,51.00
2018-07-15T08:35:39.525Z,51.10
2018-07-15T08:36:47.643Z,51.00
2018-07-15T08:37:53.375Z,51.00
2018-07-15T08:38:59.265Z,51.00
2018-07-15T08:40:04.323Z,51.70
2018-07-15T08:41:09.386Z,51.20
2018-07-15T08:42:14.436Z,51.20
2018-07-15T08:43:19.467Z,51.20
2018-07-15T08:44:24.522Z,51.30
2018-07-15T08:45:29.535Z,51.30
2018-07-15T08:46:34.499Z,51.20
2018-07-15T08:47:39.604Z,51.20
2018-07-15T08:48:44.586Z,51.20
2018-07-15T08:49:50.094Z,51.30
2018-07-15T08:50:55.666Z,51.30
2018-07-15T08:52:00.703Z,51.30
2018-07-15T08:53:06.312Z,51.30
2018-07-15T08:54:11.923Z,51.40
2018-07-15T08:55:16.949Z,51.30
2018-07-15T08:56:21.878Z,51.20
2018-07-15T08:57:26.683Z,51.20
2018-07-15T08:58:31.755Z,51.20
2018-07-15T08:59:37.393Z,51.20
2018-07-15T09:00:42.476Z,51.30
2018-07-15T09:01:47.656Z,51.20
2018-07-15T09:02:52.744Z,51.10
2018-07-15T09:03:57.589Z,51.20
2018-07-15T09:05:02.622Z,51.30
2018-07-15T09:06:07.669Z,51.30
2018-07-15T09:07:13.389Z,51.50
2018-07-15T09:08:19.087Z,51.20
2018-07-15T09:09:24.166Z,51.10
2018-07-15T09:10:29.226Z,51.10
2018-07-15T09:11:34.342Z,51.20
2018-07-15T09:12:39.414Z,51.10
2018-07-15T09:13:44.232Z,51.10
2018-07-15T09:14:49.794Z,51.10
2018-07-15T09:15:54.870Z,51.10
2018-07-15T09:17:00.502Z,51.10
2018-07-15T09:18:05.411Z,51.20
2018-07-15T09:19:11.053Z,51.20
2018-07-15T09:20:15.926Z,51.20
2018-07-15T09:21:21.499Z,51.30
2018-07-15T09:22:26.599Z,51.30
2018-07-15T09:23:31.545Z,51.30
2018-07-15T09:24:36.595Z,51.30
2018-07-15T09:25:41.673Z,51.40
2018-07-15T09:26:46.682Z,51.50
2018-07-15T09:27:51.827Z,51.50
2018-07-15T09:28:56.959Z,51.60
2018-07-15T09:30:02.515Z,51.60
2018-07-15T09:31:08.124Z,51.60
2018-07-15T09:32:13.111Z,51.50
2018-07-15T09:33:18.689Z,51.50
2018-07-15T09:34:23.741Z,51.40
2018-07-15T09:35:28.845Z,51.40
2018-07-15T09:36:34.494Z,51.60
2018-07-15T09:37:39.532Z,51.60
2018-07-15T09:38:44.374Z,51.60
2018-07-15T09:39:49.951Z,51.50
2018-07-15T09:40:54.965Z,51.40
2018-07-15T09:41:59.995Z,51.40
2018-07-15T09:43:04.835Z,51.40
2018-07-15T09:44:09.668Z,51.40
2018-07-15T09:45:14.506Z,51.40
2018-07-15T09:46:19.568Z,51.50
2018-07-15T09:47:24.464Z,51.50
2018-07-15T09:48:30.048Z,51.50
2018-07-15T09:49:34.873Z,51.50
2018-07-15T09:50:39.694Z,51.70
2018-07-15T09:51:44.833Z,51.40
2018-07-15T09:52:49.929Z,51.60
2018-07-15T09:53:54.998Z,51.80
2018-07-15T09:55:00.680Z,51.60
2018-07-15T09:56:05.442Z,51.60
2018-07-15T09:57:10.455Z,51.60
2018-07-15T09:58:15.579Z,51.60
2018-07-15T09:59:20.588Z,51.60
2018-07-15T10:00:25.567Z,51.60
2018-07-15T10:01:30.389Z,51.60
2018-07-15T10:02:35.351Z,51.60
2018-07-15T10:03:40.237Z,51.80
2018-07-15T10:04:45.130Z,51.70
2018-07-15T10:05:50.993Z,51.60
2018-07-15T10:06:56.152Z,51.60
2018-07-15T10:08:01.047Z,52.40
2018-07-15T10:09:06.663Z,51.80
2018-07-15T10:10:11.796Z,51.90
2018-07-15T10:11:17.505Z,51.80
2018-07-15T10:12:23.300Z,51.70
2018-07-15T10:13:28.395Z,51.60
2018-07-15T10:14:34.251Z,51.60
2018-07-15T10:15:39.906Z,51.70
2018-07-15T10:16:44.975Z,51.60
2018-07-15T10:17:50.244Z,51.80
2018-07-15T10:18:55.216Z,51.90
2018-07-15T10:20:00.118Z,51.90
2018-07-15T10:21:05.173Z,52.00
2018-07-15T10:22:10.897Z,52.00
2018-07-15T10:23:15.955Z,52.00
2018-07-15T10:24:21.612Z,51.90
2018-07-15T10:25:26.619Z,52.00
2018-07-15T10:26:32.354Z,52.00
2018-07-15T10:27:37.241Z,52.00
2018-07-15T10:28:42.071Z,52.00
2018-07-15T10:29:47.091Z,52.00
2018-07-15T10:30:52.857Z,52.10
2018-07-15T10:31:57.888Z,52.00
2018-07-15T10:33:03.645Z,52.20
2018-07-15T10:34:08.435Z,52.00
2018-07-15T10:35:13.501Z,52.00
2018-07-15T10:36:18.567Z,52.00
2018-07-15T10:37:24.281Z,51.90
2018-07-15T10:38:29.288Z,51.90
2018-07-15T10:39:34.415Z,52.00
2018-07-15T10:40:39.405Z,51.90
2018-07-15T10:41:44.525Z,52.30
2018-07-15T10:42:49.534Z,53.20
2018-07-15T10:43:54.492Z,52.40
2018-07-15T10:44:59.585Z,52.90
2018-07-15T10:46:04.568Z,53.00
2018-07-15T10:47:10.187Z,52.40
2018-07-15T10:48:15.199Z,52.30
2018-07-15T10:49:20.205Z,52.40
2018-07-15T10:50:25.229Z,52.50
2018-07-15T10:51:30.863Z,52.50
2018-07-15T10:52:35.876Z,52.20
2018-07-15T10:53:40.743Z,52.10
2018-07-15T10:54:46.427Z,52.00
2018-07-15T10:55:51.442Z,51.90
2018-07-15T10:56:56.463Z,52.00
2018-07-15T10:58:01.489Z,52.30
2018-07-15T10:59:07.129Z,52.20
2018-07-15T11:00:12.042Z,52.00
2018-07-15T11:01:17.176Z,52.00
2018-07-15T11:02:22.195Z,52.00
2018-07-15T11:03:27.302Z,51.90
2018-07-15T11:04:32.379Z,51.70
2018-07-15T11:05:37.481Z,51.60
2018-07-15T11:06:42.499Z,51.50
2018-07-15T11:07:47.806Z,51.50
2018-07-15T11:08:52.813Z,51.50
2018-07-15T11:09:57.967Z,51.50
2018-07-15T11:11:02.876Z,51.50
2018-07-15T11:12:07.987Z,51.50
2018-07-15T11:13:13.160Z,51.50
2018-07-15T11:14:18.116Z,51.70
2018-07-15T11:15:23.885Z,51.80
2018-07-15T11:16:29.605Z,51.80
2018-07-15T11:17:34.799Z,51.90
2018-07-15T11:18:39.954Z,52.10
2018-07-15T11:19:45.706Z,52.30
2018-07-15T11:20:51.753Z,52.00
2018-07-15T11:21:56.998Z,51.80
2018-07-15T11:23:02.869Z,51.70
2018-07-15T11:24:08.772Z,51.60
2018-07-15T11:25:14.012Z,51.60
2018-07-15T11:26:19.777Z,52.30
2018-07-15T11:27:24.709Z,51.60
2018-07-15T11:28:30.367Z,51.50
2018-07-15T11:29:35.479Z,51.50
2018-07-15T11:30:40.733Z,51.50
2018-07-15T11:31:45.687Z,51.60
2018-07-15T11:32:51.667Z,51.80
2018-07-15T11:33:56.678Z,52.70
2018-07-15T11:35:02.653Z,52.20
2018-07-15T11:36:08.297Z,51.90
2018-07-15T11:37:13.277Z,52.20
2018-07-15T11:38:18.248Z,52.30
2018-07-15T11:39:23.441Z,52.60
2018-07-15T11:40:28.693Z,52.10
2018-07-15T11:41:34.494Z,52.00
2018-07-15T11:42:40.930Z,52.00
2018-07-15T11:43:46.204Z,52.40
2018-07-15T11:44:51.514Z,52.10
2018-07-15T11:45:56.496Z,52.30
2018-07-15T11:47:01.915Z,52.40
2018-07-15T11:48:07.001Z,52.40
2018-07-15T11:49:12.710Z,52.50
2018-07-15T11:50:17.774Z,52.20
2018-07-15T11:51:22.985Z,52.10
2018-07-15T11:52:28.036Z,52.20
2018-07-15T11:53:33.162Z,52.20
2018-07-15T11:54:38.313Z,53.00
2018-07-15T11:55:43.348Z,52.40
2018-07-15T11:56:49.026Z,52.20
2018-07-15T11:57:53.987Z,52.00
2018-07-15T11:58:59.108Z,52.00
2018-07-15T12:00:04.569Z,52.30
2018-07-15T12:01:10.466Z,52.50
2018-07-15T12:02:15.722Z,52.50
2018-07-15T12:03:21.510Z,52.60
2018-07-15T12:04:26.527Z,52.80
2018-07-15T12:05:32.170Z,53.10
2018-07-15T12:06:37.868Z,53.10
2018-07-15T12:07:42.824Z,53.00
2018-07-15T12:08:47.907Z,53.00
2018-07-15T12:09:52.996Z,53.00
2018-07-15T12:10:58.026Z,53.00
2018-07-15T12:12:03.174Z,53.00
2018-07-15T12:13:08.341Z,53.00
2018-07-15T12:14:13.486Z,52.90
2018-07-15T12:15:18.552Z,53.10
2018-07-15T12:16:24.263Z,52.90
2018-07-15T12:17:29.184Z,52.90
2018-07-15T12:18:34.900Z,52.80
2018-07-15T12:19:40.592Z,52.70
2018-07-15T12:20:45.910Z,52.70
2018-07-15T12:21:51.757Z,52.60
2018-07-15T12:22:57.496Z,52.50
2018-07-15T12:24:02.951Z,52.70
2018-07-15T12:25:08.672Z,52.30
2018-07-15T12:26:13.898Z,52.10
2018-07-15T12:27:19.423Z,52.00
2018-07-15T12:28:25.182Z,52.00
2018-07-15T12:29:30.327Z,52.00
2018-07-15T12:30:36.191Z,52.10
2018-07-15T12:31:42.131Z,52.10
2018-07-15T12:32:47.886Z,52.10
2018-07-15T12:33:53.011Z,52.30
2018-07-15T12:34:58.441Z,52.50
2018-07-15T12:36:04.547Z,52.40
2018-07-15T12:37:10.892Z,52.50
2018-07-15T12:38:15.987Z,52.60
2018-07-15T12:39:21.036Z,52.60
2018-07-15T12:40:26.056Z,53.20
2018-07-15T12:41:31.751Z,52.70
2018-07-15T12:42:37.452Z,52.80
2018-07-15T12:43:42.370Z,52.70
2018-07-15T12:44:47.274Z,52.70
2018-07-15T12:45:53.049Z,52.70
2018-07-15T12:46:58.181Z,52.40
2018-07-15T12:48:03.643Z,52.20
2018-07-15T12:49:08.796Z,52.20
2018-07-15T12:50:13.915Z,52.00
2018-07-15T12:51:18.978Z,51.90
2018-07-15T12:52:24.047Z,51.80
2018-07-15T12:53:29.086Z,52.00
2018-07-15T12:54:34.205Z,52.00
2018-07-15T12:55:39.267Z,52.20
2018-07-15T12:56:46.235Z,52.40
2018-07-15T12:57:51.890Z,52.30
2018-07-15T12:58:56.767Z,52.40
2018-07-15T13:00:02.474Z,52.40
2018-07-15T13:01:07.574Z,52.40
2018-07-15T13:02:12.794Z,52.50
2018-07-15T13:03:18.576Z,52.50
2018-07-15T13:04:24.251Z,52.50
2018-07-15T13:05:29.938Z,52.50
2018-07-15T13:06:35.081Z,52.50
2018-07-15T13:07:40.716Z,52.50
2018-07-15T13:08:46.353Z,52.60
2018-07-15T13:09:52.035Z,52.60
2018-07-15T13:10:57.711Z,52.70
2018-07-15T13:12:02.787Z,52.80
2018-07-15T13:13:08.398Z,52.80
2018-07-15T13:14:14.088Z,52.80
2018-07-15T13:15:19.113Z,52.60
2018-07-15T13:16:24.250Z,52.70
2018-07-15T13:17:29.339Z,52.60
2018-07-15T13:18:34.546Z,52.80
2018-07-15T13:19:40.218Z,52.70
2018-07-15T13:20:45.337Z,52.60
2018-07-15T13:21:50.351Z,52.70
2018-07-15T13:22:55.286Z,52.60
2018-07-15T13:24:00.276Z,52.60
2018-07-15T13:25:06.006Z,52.50
2018-07-15T13:26:10.928Z,52.50
2018-07-15T13:27:16.641Z,52.50
2018-07-15T13:28:21.751Z,52.50
2018-07-15T13:29:26.742Z,52.40
2018-07-15T13:30:31.779Z,52.40
2018-07-15T13:31:36.770Z,52.40
2018-07-15T13:32:41.820Z,52.40
2018-07-15T13:33:47.411Z,52.40
2018-07-15T13:34:52.239Z,52.50
2018-07-15T13:35:57.360Z,52.40
2018-07-15T13:37:02.407Z,52.40
2018-07-15T13:38:08.067Z,52.40
2018-07-15T13:39:13.661Z,52.40
2018-07-15T13:40:18.538Z,52.40
2018-07-15T13:41:23.519Z,52.50
2018-07-15T13:42:29.083Z,52.50
2018-07-15T13:43:34.029Z,52.50
2018-07-15T13:44:39.066Z,52.60
2018-07-15T13:45:44.121Z,52.60
2018-07-15T13:46:49.080Z,52.70
2018-07-15T13:47:53.966Z,52.70
2018-07-15T13:48:58.944Z,52.70
2018-07-15T13:50:04.037Z,52.70
2018-07-15T13:51:09.638Z,52.70
2018-07-15T13:52:14.640Z,52.80
2018-07-15T13:53:19.393Z,52.80
2018-07-15T13:54:24.399Z,52.80
2018-07-15T13:55:29.359Z,52.80
2018-07-15T13:56:34.963Z,52.90
2018-07-15T13:57:40.529Z,53.00
2018-07-15T13:58:46.231Z,52.90
2018-07-15T13:59:51.214Z,53.00